NCAR-RAP Real-Time Weather Data

Output produced by METARs form (17 September 2019  16:59 UTC)
found at http://weather.rap.ucar.edu/surface/
 
KLSE 171653Z 17008KT 10SM CLR 27/15 A3008 RMK AO2 SLP177 T02720150 PNO /
KLSE 171553Z 18012KT 10SM CLR 26/14 A3009 RMK AO2 SLP180 T02610139
KLSE 171453Z 17006KT 10SM CLR 24/16 A3011 RMK AO2 SLP186 T02440156 53001
KLSE 171353Z 17007KT 10SM CLR 23/17 A3010 RMK AO2 SLP184 T02280167
KLSE 171253Z 16007KT 9SM CLR 21/17 A3011 RMK AO2 SLP186 T02110172
KLSE 171153Z 15006KT 9SM BKN034 21/18 A3010 RMK AO2 SLP185 T02060178 10222 20200 53008
KLSE 171053Z 15005KT 9SM CLR 21/18 A3009 RMK AO2 SLP177 T02110178
KLSE 170953Z AUTO 14006KT 9SM CLR 21/18 A3008 RMK AO2 SLP177 T02110183
KLSE 170853Z AUTO 16006KT 9SM CLR 21/18 A3008 RMK AO2 SLP174 T02110183 53005
KLSE 170653Z AUTO 21003KT 9SM CLR 22/18 A3007 RMK AO2 SLP171 T02170183
KLSE 170553Z AUTO 13005KT 9SM CLR 22/19 A3006 RMK AO2 SLP170 T02170189 10261 20206 403060161 58001
KLSE 170453Z AUTO 15005KT 9SM CLR 21/18 A3007 RMK AO2 SLP173 T02110183
KLSE 170353Z AUTO 13004KT 9SM CLR 21/18 A3007 RMK AO2 SLP174 T02110183
KLSE 170253Z AUTO 13003KT 9SM CLR 22/18 A3007 RMK AO2 SLP174 T02170178 53008
KLSE 170053Z 15006KT 10SM CLR 24/18 A3004 RMK AO2 SLP166 T02390183
KLSE 162353Z 18006KT 10SM CLR 26/18 A3004 RMK AO2 SLP165 T02560183 10306 20256 55005
KLSE 162253Z 16007KT 10SM CLR 28/18 A3004 RMK AO2 SLP163 T02830178
KLSE 162153Z 17008KT 10SM CLR 29/18 A3004 RMK AO2 SLP164 T02940183
KLSE 162053Z 18008KT 10SM CLR 30/19 A3005 RMK AO2 SLP168 T03000189 56014